Al Betroleya — V7KY4 — position and weather

sailwx.info

Track history (hours):
 
Tides and Currents Weather Stations Pressure Air Temp Water Temp Dewpoint Dewpoint Depression Visibility Wind Speed Wind Dir Waves Ship Positions

Al Betroleya

Last reported at 2017-Sep-21 05:11 UTC. Time now 2017-Sep-21 07:12 UTC.
Position N 31°10' E 029°51'.

Length 183 m; draft 10 m.

Type: Tanker. MMSI: 538006239.

Date/timePositionNaut miles runAvg speedWind from/ knotsBaromVisibWave heightAir tempDewpointWater temp
2017-Sep-21 05:11N 31°10' E 029°51'  
2017-Sep-16 07:56N 36°52' E 023°44'512.3
2017-Sep-16 07:30N 36°57' E 023°44'612.2
2017-Sep-16 07:00N 37°03' E 023°45'712.1
2017-Sep-16 06:24N 37°11' E 023°45'511.9
2017-Sep-16 06:00N 37°15' E 023°46'612.0
2017-Sep-16 05:30N 37°21' E 023°46'612.6
2017-Sep-16 05:00N 37°28' E 023°46'612.5
2017-Sep-16 04:30N 37°34' E 023°45'611.7
2017-Sep-16 03:59N 37°40' E 023°42'511.6
2017-Sep-16 03:30N 37°45' E 023°39'510.9
2017-Sep-16 03:00N 37°49' E 023°35'611.1
2017-Sep-16 02:30N 37°51' E 023°28'4 7.2
2017-Sep-16 02:00N 37°51' E 023°24'5 9.6
2017-Sep-16 01:30N 37°52' E 023°18'611.6
2017-Sep-16 01:00N 37°53' E 023°10'4 8.4
2017-Sep-16 00:30N 37°55' E 023°05'0 0.7
2017-Sep-15 23:55N 37°55' E 023°05'0 0.0
2017-Sep-15 23:30N 37°55' E 023°05'0 0.0
2017-Sep-14 07:56N 37°55' E 023°05'0 0.7
2017-Sep-14 07:30N 37°55' E 023°05'1 2.7
2017-Sep-14 07:01N 37°54' E 023°07'1 1.2
2017-Sep-14 06:28N 37°54' E 023°07'0 0.8
2017-Sep-14 06:00N 37°54' E 023°08'0 0.8
2017-Sep-14 05:31N 37°54' E 023°08'1 2.5
2017-Sep-14 05:01N 37°53' E 023°09'3 5.2
2017-Sep-14 04:31N 37°53' E 023°13'3 5.5
2017-Sep-14 04:00N 37°52' E 023°16'3 5.7
2017-Sep-14 03:31N 37°52' E 023°20'3 6.1
2017-Sep-14 03:00N 37°51' E 023°24'5 9.1
2017-Sep-14 02:31N 37°50' E 023°29'5 9.3
2017-Sep-14 02:01N 37°50' E 023°35'4 7.9
2017-Sep-14 01:31N 37°49' E 023°40'5 9.3
2017-Sep-14 01:01N 37°45' E 023°42'610.7
2017-Sep-14 00:30N 37°40' E 023°46'511.0
2017-Sep-14 00:00N 37°35' E 023°46'4 8.6
2017-Sep-13 23:30N 37°31' E 023°46'5 8.7
2017-Sep-13 22:59N 37°26' E 023°46'1913.4
2017-Sep-13 21:34N 37°07' E 023°45'4911.3
2017-Sep-13 17:14N 36°23' E 024°11'612.5
2017-Sep-13 16:47N 36°21' E 024°18'37011.9
2017-Sep-12 09:48N 31°48' E 029°21'312.1
2017-Sep-12 09:30N 31°45' E 029°23'911.7
2017-Sep-12 08:43N 31°38' E 029°29'  
Track history (hours):
 
Tides and Currents Weather Stations Pressure Air Temp Water Temp Dewpoint Dewpoint Depression Visibility Wind Speed Wind Dir Waves Ship Positions

Al Betroleya

Last reported at 2017-Sep-21 05:11 UTC. Time now 2017-Sep-21 07:12 UTC.
Position N 31°10' E 029°51'.

Length 183 m; draft 10 m.

Type: Tanker. MMSI: 538006239.

Date/timePositionNaut miles runAvg speedWind from/ knotsBaromVisibWave heightAir tempDewpointWater temp
2017-Sep-21 05:11N 31°10' E 029°51'  
2017-Sep-16 07:56N 36°52' E 023°44'512.3
2017-Sep-16 07:30N 36°57' E 023°44'612.2
2017-Sep-16 07:00N 37°03' E 023°45'712.1
2017-Sep-16 06:24N 37°11' E 023°45'511.9
2017-Sep-16 06:00N 37°15' E 023°46'612.0
2017-Sep-16 05:30N 37°21' E 023°46'612.6
2017-Sep-16 05:00N 37°28' E 023°46'612.5
2017-Sep-16 04:30N 37°34' E 023°45'611.7
2017-Sep-16 03:59N 37°40' E 023°42'511.6
2017-Sep-16 03:30N 37°45' E 023°39'510.9
2017-Sep-16 03:00N 37°49' E 023°35'611.1
2017-Sep-16 02:30N 37°51' E 023°28'4 7.2
2017-Sep-16 02:00N 37°51' E 023°24'5 9.6
2017-Sep-16 01:30N 37°52' E 023°18'611.6
2017-Sep-16 01:00N 37°53' E 023°10'4 8.4
2017-Sep-16 00:30N 37°55' E 023°05'0 0.7
2017-Sep-15 23:55N 37°55' E 023°05'0 0.0
2017-Sep-15 23:30N 37°55' E 023°05'0 0.0
2017-Sep-14 07:56N 37°55' E 023°05'0 0.7
2017-Sep-14 07:30N 37°55' E 023°05'1 2.7
2017-Sep-14 07:01N 37°54' E 023°07'1 1.2
2017-Sep-14 06:28N 37°54' E 023°07'0 0.8
2017-Sep-14 06:00N 37°54' E 023°08'0 0.8
2017-Sep-14 05:31N 37°54' E 023°08'1 2.5
2017-Sep-14 05:01N 37°53' E 023°09'3 5.2
2017-Sep-14 04:31N 37°53' E 023°13'3 5.5
2017-Sep-14 04:00N 37°52' E 023°16'3 5.7
2017-Sep-14 03:31N 37°52' E 023°20'3 6.1
2017-Sep-14 03:00N 37°51' E 023°24'5 9.1
2017-Sep-14 02:31N 37°50' E 023°29'5 9.3
2017-Sep-14 02:01N 37°50' E 023°35'4 7.9
2017-Sep-14 01:31N 37°49' E 023°40'5 9.3
2017-Sep-14 01:01N 37°45' E 023°42'610.7
2017-Sep-14 00:30N 37°40' E 023°46'511.0
2017-Sep-14 00:00N 37°35' E 023°46'4 8.6
2017-Sep-13 23:30N 37°31' E 023°46'5 8.7
2017-Sep-13 22:59N 37°26' E 023°46'1913.4
2017-Sep-13 21:34N 37°07' E 023°45'4911.3
2017-Sep-13 17:14N 36°23' E 024°11'612.5
2017-Sep-13 16:47N 36°21' E 024°18'37011.9
2017-Sep-12 09:48N 31°48' E 029°21'312.1
2017-Sep-12 09:30N 31°45' E 029°23'911.7
2017-Sep-12 08:43N 31°38' E 029°29'  

Dump ship's entire track history